sensor_id;sensor_type;location;lat;lon;timestamp;pressure;altitude;pressure_sealevel;temperature;humidity
55916;BME280;41826;53.246;-6.670;2022-08-01T00:02:05;101053.13;;;15.95;100.00
55916;BME280;41826;53.246;-6.670;2022-08-01T00:04:31;101050.47;;;15.87;100.00
55916;BME280;41826;53.246;-6.670;2022-08-01T00:06:56;101049.50;;;15.88;100.00
55916;BME280;41826;53.246;-6.670;2022-08-01T00:09:21;101049.47;;;15.96;100.00
55916;BME280;41826;53.246;-6.670;2022-08-01T00:11:47;101040.41;;;15.82;100.00
55916;BME280;41826;53.246;-6.670;2022-08-01T00:14:12;101040.22;;;15.59;100.00
55916;BME280;41826;53.246;-6.670;2022-08-01T00:16:38;101041.44;;;15.32;100.00
55916;BME280;41826;53.246;-6.670;2022-08-01T00:19:03;101054.16;;;15.37;100.00
55916;BME280;41826;53.246;-6.670;2022-08-01T00:21:29;101044.38;;;15.54;100.00
55916;BME280;41826;53.246;-6.670;2022-08-01T00:23:54;101037.59;;;15.59;100.00
55916;BME280;41826;53.246;-6.670;2022-08-01T00:26:20;101035.78;;;15.68;100.00
55916;BME280;41826;53.246;-6.670;2022-08-01T00:28:45;101031.63;;;15.82;100.00
55916;BME280;41826;53.246;-6.670;2022-08-01T00:31:11;101027.38;;;16.20;100.00
55916;BME280;41826;53.246;-6.670;2022-08-01T00:33:36;101023.88;;;16.28;100.00
55916;BME280;41826;53.246;-6.670;2022-08-01T00:36:01;101024.78;;;16.43;100.00
55916;BME280;41826;53.246;-6.670;2022-08-01T00:38:27;101023.41;;;16.47;100.00
55916;BME280;41826;53.246;-6.670;2022-08-01T00:40:52;101021.41;;;16.50;100.00
55916;BME280;41826;53.246;-6.670;2022-08-01T00:43:18;101007.91;;;16.36;100.00
55916;BME280;41826;53.246;-6.670;2022-08-01T00:45:43;101014.59;;;16.24;100.00
55916;BME280;41826;53.246;-6.670;2022-08-01T00:48:08;101018.03;;;16.33;100.00
55916;BME280;41826;53.246;-6.670;2022-08-01T00:50:34;101008.59;;;16.30;100.00
55916;BME280;41826;53.246;-6.670;2022-08-01T00:53:00;101011.91;;;16.32;100.00
55916;BME280;41826;53.246;-6.670;2022-08-01T00:55:27;101006.59;;;16.32;100.00
55916;BME280;41826;53.246;-6.670;2022-08-01T00:57:52;101003.94;;;16.32;100.00
55916;BME280;41826;53.246;-6.670;2022-08-01T01:00:18;101000.53;;;16.23;100.00
55916;BME280;41826;53.246;-6.670;2022-08-01T01:02:43;101000.59;;;16.07;100.00
55916;BME280;41826;53.246;-6.670;2022-08-01T01:05:09;101016.44;;;15.51;100.00
55916;BME280;41826;53.246;-6.670;2022-08-01T01:07:52;101025.06;;;15.29;100.00
55916;BME280;41826;53.246;-6.670;2022-08-01T01:13:09;101034.16;;;15.18;100.00
55916;BME280;41826;53.246;-6.670;2022-08-01T01:15:58;101037.28;;;15.05;100.00
55916;BME280;41826;53.246;-6.670;2022-08-01T01:18:32;101036.63;;;14.95;100.00
55916;BME280;41826;53.246;-6.670;2022-08-01T01:29:16;101027.88;;;14.94;100.00
55916;BME280;41826;53.246;-6.670;2022-08-01T01:31:57;101017.13;;;15.12;100.00
55916;BME280;41826;53.246;-6.670;2022-08-01T01:34:25;101015.47;;;15.03;100.00
55916;BME280;41826;53.246;-6.670;2022-08-01T01:36:54;101017.44;;;14.85;100.00
55916;BME280;41826;53.246;-6.670;2022-08-01T01:39:20;101016.28;;;14.79;100.00
55916;BME280;41826;53.246;-6.670;2022-08-01T01:41:49;101019.94;;;14.94;100.00
55916;BME280;41826;53.246;-6.670;2022-08-01T01:44:15;101021.59;;;14.87;100.00
55916;BME280;41826;53.246;-6.670;2022-08-01T01:46:42;101017.91;;;14.64;100.00
55916;BME280;41826;53.246;-6.670;2022-08-01T01:49:09;101015.28;;;14.72;100.00
55916;BME280;41826;53.246;-6.670;2022-08-01T01:51:37;101009.19;;;14.96;100.00
55916;BME280;41826;53.246;-6.670;2022-08-01T01:54:04;101010.66;;;14.90;100.00
55916;BME280;41826;53.246;-6.670;2022-08-01T01:56:30;101011.81;;;14.88;100.00
55916;BME280;41826;53.246;-6.670;2022-08-01T01:59:01;101015.78;;;14.76;100.00
55916;BME280;41826;53.246;-6.670;2022-08-01T02:01:29;101012.97;;;14.69;100.00
55916;BME280;41826;53.246;-6.670;2022-08-01T02:03:56;101017.09;;;14.71;100.00
55916;BME280;41826;53.246;-6.670;2022-08-01T02:06:24;101023.41;;;14.79;100.00
55916;BME280;41826;53.246;-6.670;2022-08-01T02:08:52;101012.31;;;14.75;100.00
55916;BME280;41826;53.246;-6.670;2022-08-01T02:11:19;101020.84;;;14.61;100.00
55916;BME280;41826;53.246;-6.670;2022-08-01T02:13:58;101009.81;;;14.73;100.00
55916;BME280;41826;53.246;-6.670;2022-08-01T02:16:28;101022.34;;;14.55;100.00
55916;BME280;41826;53.246;-6.670;2022-08-01T02:18:54;101005.53;;;14.64;100.00
55916;BME280;41826;53.246;-6.670;2022-08-01T02:21:27;101014.03;;;14.50;100.00
55916;BME280;41826;53.246;-6.670;2022-08-01T02:23:55;100994.97;;;14.64;100.00
55916;BME280;41826;53.246;-6.670;2022-08-01T02:26:24;100987.19;;;14.63;100.00
55916;BME280;41826;53.246;-6.670;2022-08-01T02:28:54;100990.34;;;14.66;100.00
55916;BME280;41826;53.246;-6.670;2022-08-01T02:31:22;100998.03;;;14.51;100.00
55916;BME280;41826;53.246;-6.670;2022-08-01T02:33:58;101015.03;;;14.41;100.00
55916;BME280;41826;53.246;-6.670;2022-08-01T02:36:26;101008.25;;;14.38;100.00
55916;BME280;41826;53.246;-6.670;2022-08-01T02:38:54;101013.69;;;14.37;100.00
55916;BME280;41826;53.246;-6.670;2022-08-01T02:41:21;101011.50;;;14.32;100.00
55916;BME280;41826;53.246;-6.670;2022-08-01T02:43:51;101010.38;;;14.35;100.00
55916;BME280;41826;53.246;-6.670;2022-08-01T02:46:22;101007.53;;;14.28;100.00
55916;BME280;41826;53.246;-6.670;2022-08-01T02:48:52;101006.22;;;14.32;100.00
55916;BME280;41826;53.246;-6.670;2022-08-01T02:51:19;101010.34;;;14.26;100.00
55916;BME280;41826;53.246;-6.670;2022-08-01T02:53:47;101002.91;;;14.30;100.00
55916;BME280;41826;53.246;-6.670;2022-08-01T02:56:15;100990.91;;;14.36;100.00
55916;BME280;41826;53.246;-6.670;2022-08-01T02:58:42;101002.13;;;14.38;100.00
55916;BME280;41826;53.246;-6.670;2022-08-01T03:01:10;100980.75;;;14.57;100.00
55916;BME280;41826;53.246;-6.670;2022-08-01T03:03:36;100968.88;;;14.69;100.00
55916;BME280;41826;53.246;-6.670;2022-08-01T03:06:02;100949.22;;;14.88;100.00
55916;BME280;41826;53.246;-6.670;2022-08-01T03:08:30;100950.38;;;15.02;100.00
55916;BME280;41826;53.246;-6.670;2022-08-01T03:10:56;100950.72;;;14.99;100.00
55916;BME280;41826;53.246;-6.670;2022-08-01T03:13:25;100963.44;;;14.87;100.00
55916;BME280;41826;53.246;-6.670;2022-08-01T03:15:52;100976.47;;;14.72;100.00
55916;BME280;41826;53.246;-6.670;2022-08-01T03:18:21;100989.59;;;14.48;100.00
55916;BME280;41826;53.246;-6.670;2022-08-01T03:20:50;100994.72;;;14.41;100.00
55916;BME280;41826;53.246;-6.670;2022-08-01T03:23:18;101005.41;;;14.31;100.00
55916;BME280;41826;53.246;-6.670;2022-08-01T03:25:46;100985.31;;;14.47;100.00
55916;BME280;41826;53.246;-6.670;2022-08-01T03:28:13;101008.72;;;14.34;100.00
55916;BME280;41826;53.246;-6.670;2022-08-01T03:30:42;101012.84;;;14.36;100.00
55916;BME280;41826;53.246;-6.670;2022-08-01T03:33:08;101021.06;;;14.25;100.00
55916;BME280;41826;53.246;-6.670;2022-08-01T03:35:37;101015.63;;;14.26;100.00
55916;BME280;41826;53.246;-6.670;2022-08-01T03:38:05;101018.25;;;14.18;100.00
55916;BME280;41826;53.246;-6.670;2022-08-01T03:40:40;101020.53;;;14.13;100.00
55916;BME280;41826;53.246;-6.670;2022-08-01T03:43:15;101025.63;;;14.15;100.00
55916;BME280;41826;53.246;-6.670;2022-08-01T03:45:46;101020.19;;;14.08;100.00
55916;BME280;41826;53.246;-6.670;2022-08-01T03:48:16;101024.16;;;14.12;100.00
55916;BME280;41826;53.246;-6.670;2022-08-01T03:50:46;101012.34;;;14.32;100.00
55916;BME280;41826;53.246;-6.670;2022-08-01T03:53:13;101007.34;;;14.21;100.00
55916;BME280;41826;53.246;-6.670;2022-08-01T03:55:41;101008.16;;;14.14;100.00
55916;BME280;41826;53.246;-6.670;2022-08-01T03:58:09;101010.34;;;13.92;100.00
55916;BME280;41826;53.246;-6.670;2022-08-01T04:00:36;101021.13;;;13.99;100.00
55916;BME280;41826;53.246;-6.670;2022-08-01T04:03:04;101016.53;;;14.01;100.00
55916;BME280;41826;53.246;-6.670;2022-08-01T04:05:31;101006.00;;;14.09;100.00
55916;BME280;41826;53.246;-6.670;2022-08-01T04:07:57;101012.09;;;14.09;100.00
55916;BME280;41826;53.246;-6.670;2022-08-01T04:10:25;101006.09;;;13.99;100.00
55916;BME280;41826;53.246;-6.670;2022-08-01T04:12:51;101010.59;;;14.07;100.00
55916;BME280;41826;53.246;-6.670;2022-08-01T04:15:17;101001.91;;;14.23;100.00
55916;BME280;41826;53.246;-6.670;2022-08-01T04:17:42;101006.22;;;14.24;100.00
55916;BME280;41826;53.246;-6.670;2022-08-01T04:20:08;100977.53;;;14.45;100.00
55916;BME280;41826;53.246;-6.670;2022-08-01T04:22:34;100961.94;;;14.77;100.00
55916;BME280;41826;53.246;-6.670;2022-08-01T04:25:04;100974.44;;;14.58;100.00
55916;BME280;41826;53.246;-6.670;2022-08-01T04:27:32;100962.25;;;14.57;100.00
55916;BME280;41826;53.246;-6.670;2022-08-01T04:30:00;100968.78;;;14.45;100.00
55916;BME280;41826;53.246;-6.670;2022-08-01T04:32:27;100978.19;;;14.39;100.00
55916;BME280;41826;53.246;-6.670;2022-08-01T04:34:58;100979.03;;;14.40;100.00
55916;BME280;41826;53.246;-6.670;2022-08-01T04:37:25;100982.19;;;14.43;100.00
55916;BME280;41826;53.246;-6.670;2022-08-01T04:39:54;100987.28;;;14.37;100.00
55916;BME280;41826;53.246;-6.670;2022-08-01T04:42:20;100983.00;;;14.36;100.00
55916;BME280;41826;53.246;-6.670;2022-08-01T04:44:46;100974.41;;;14.42;100.00
55916;BME280;41826;53.246;-6.670;2022-08-01T04:47:12;100972.44;;;14.44;100.00
55916;BME280;41826;53.246;-6.670;2022-08-01T04:49:38;100977.34;;;14.30;100.00
55916;BME280;41826;53.246;-6.670;2022-08-01T04:52:04;100978.25;;;14.05;100.00
55916;BME280;41826;53.246;-6.670;2022-08-01T04:54:33;100991.41;;;13.97;100.00
55916;BME280;41826;53.246;-6.670;2022-08-01T04:56:59;100998.72;;;14.03;100.00
55916;BME280;41826;53.246;-6.670;2022-08-01T04:59:29;100994.44;;;14.10;100.00
55916;BME280;41826;53.246;-6.670;2022-08-01T05:02:15;100985.88;;;14.16;100.00
55916;BME280;41826;53.246;-6.670;2022-08-01T05:04:41;100978.47;;;14.20;100.00
55916;BME280;41826;53.246;-6.670;2022-08-01T05:07:07;100976.03;;;14.26;100.00
55916;BME280;41826;53.246;-6.670;2022-08-01T05:09:33;100971.38;;;14.20;100.00
55916;BME280;41826;53.246;-6.670;2022-08-01T05:12:00;100974.84;;;14.21;100.00
55916;BME280;41826;53.246;-6.670;2022-08-01T05:14:27;100975.16;;;14.18;100.00
55916;BME280;41826;53.246;-6.670;2022-08-01T05:16:53;100979.59;;;14.09;100.00
55916;BME280;41826;53.246;-6.670;2022-08-01T05:19:20;100983.00;;;13.93;100.00
55916;BME280;41826;53.246;-6.670;2022-08-01T05:21:46;100983.84;;;14.02;100.00
55916;BME280;41826;53.246;-6.670;2022-08-01T05:24:12;100983.53;;;14.05;100.00
55916;BME280;41826;53.246;-6.670;2022-08-01T05:26:38;100975.47;;;14.15;100.00
55916;BME280;41826;53.246;-6.670;2022-08-01T05:29:03;100974.97;;;14.11;100.00
55916;BME280;41826;53.246;-6.670;2022-08-01T05:31:29;100981.91;;;14.12;100.00
55916;BME280;41826;53.246;-6.670;2022-08-01T05:33:54;100975.94;;;14.10;100.00
55916;BME280;41826;53.246;-6.670;2022-08-01T05:36:19;100980.59;;;14.16;100.00
55916;BME280;41826;53.246;-6.670;2022-08-01T05:38:45;100972.84;;;14.15;100.00
55916;BME280;41826;53.246;-6.670;2022-08-01T05:41:10;100974.09;;;14.02;100.00
55916;BME280;41826;53.246;-6.670;2022-08-01T05:43:36;100970.16;;;13.72;100.00
55916;BME280;41826;53.246;-6.670;2022-08-01T05:46:01;100965.91;;;13.71;100.00
55916;BME280;41826;53.246;-6.670;2022-08-01T05:48:27;100968.22;;;13.74;100.00
55916;BME280;41826;53.246;-6.670;2022-08-01T05:50:53;100964.91;;;14.06;100.00
55916;BME280;41826;53.246;-6.670;2022-08-01T05:53:20;100949.16;;;14.39;100.00
55916;BME280;41826;53.246;-6.670;2022-08-01T05:55:45;100938.16;;;14.85;100.00
55916;BME280;41826;53.246;-6.670;2022-08-01T05:58:10;100932.97;;;15.24;100.00
55916;BME280;41826;53.246;-6.670;2022-08-01T06:00:36;100918.44;;;15.28;100.00
55916;BME280;41826;53.246;-6.670;2022-08-01T06:03:01;100912.03;;;15.14;100.00
55916;BME280;41826;53.246;-6.670;2022-08-01T06:05:27;100918.84;;;15.73;100.00
55916;BME280;41826;53.246;-6.670;2022-08-01T06:07:52;100896.63;;;16.13;100.00
55916;BME280;41826;53.246;-6.670;2022-08-01T06:10:18;100879.53;;;16.62;100.00
55916;BME280;41826;53.246;-6.670;2022-08-01T06:12:44;100867.47;;;16.82;100.00
55916;BME280;41826;53.246;-6.670;2022-08-01T06:15:10;100852.50;;;17.04;100.00
55916;BME280;41826;53.246;-6.670;2022-08-01T06:17:35;100845.00;;;17.23;100.00
55916;BME280;41826;53.246;-6.670;2022-08-01T06:20:00;100862.28;;;17.48;100.00
55916;BME280;41826;53.246;-6.670;2022-08-01T06:22:26;100854.94;;;17.65;100.00
55916;BME280;41826;53.246;-6.670;2022-08-01T06:24:51;100848.47;;;17.74;100.00
55916;BME280;41826;53.246;-6.670;2022-08-01T06:27:17;100846.13;;;17.80;100.00
55916;BME280;41826;53.246;-6.670;2022-08-01T06:29:42;100862.00;;;17.43;100.00
55916;BME280;41826;53.246;-6.670;2022-08-01T06:32:08;100850.28;;;17.08;100.00
55916;BME280;41826;53.246;-6.670;2022-08-01T06:34:34;100851.00;;;17.31;100.00
55916;BME280;41826;53.246;-6.670;2022-08-01T06:37:00;100843.66;;;17.78;100.00
55916;BME280;41826;53.246;-6.670;2022-08-01T06:39:25;100860.06;;;17.52;100.00
55916;BME280;41826;53.246;-6.670;2022-08-01T06:41:51;100866.47;;;16.98;100.00
55916;BME280;41826;53.246;-6.670;2022-08-01T06:44:16;100881.31;;;17.22;100.00
55916;BME280;41826;53.246;-6.670;2022-08-01T06:46:41;100869.22;;;17.05;100.00
55916;BME280;41826;53.246;-6.670;2022-08-01T06:49:07;100879.75;;;16.75;100.00
55916;BME280;41826;53.246;-6.670;2022-08-01T06:51:32;100875.75;;;17.32;100.00
55916;BME280;41826;53.246;-6.670;2022-08-01T06:53:58;100875.75;;;17.17;100.00
55916;BME280;41826;53.246;-6.670;2022-08-01T06:56:23;100873.47;;;16.53;100.00
55916;BME280;41826;53.246;-6.670;2022-08-01T06:58:49;100882.38;;;16.37;100.00
55916;BME280;41826;53.246;-6.670;2022-08-01T07:01:15;100884.88;;;16.39;100.00
55916;BME280;41826;53.246;-6.670;2022-08-01T07:03:40;100887.81;;;16.13;100.00
55916;BME280;41826;53.246;-6.670;2022-08-01T07:06:06;100886.38;;;16.56;100.00
55916;BME280;41826;53.246;-6.670;2022-08-01T07:08:31;100885.66;;;16.62;100.00
55916;BME280;41826;53.246;-6.670;2022-08-01T07:10:57;100887.75;;;16.29;100.00
55916;BME280;41826;53.246;-6.670;2022-08-01T07:13:28;100882.56;;;16.59;100.00
55916;BME280;41826;53.246;-6.670;2022-08-01T07:15:55;100883.97;;;17.37;100.00
55916;BME280;41826;53.246;-6.670;2022-08-01T07:18:21;100871.78;;;18.09;100.00
55916;BME280;41826;53.246;-6.670;2022-08-01T07:20:47;100862.78;;;18.10;100.00
55916;BME280;41826;53.246;-6.670;2022-08-01T07:23:13;100859.56;;;18.79;100.00
55916;BME280;41826;53.246;-6.670;2022-08-01T07:25:38;100847.28;;;18.78;100.00
55916;BME280;41826;53.246;-6.670;2022-08-01T07:28:04;100856.81;;;18.72;100.00
55916;BME280;41826;53.246;-6.670;2022-08-01T07:30:30;100855.47;;;18.33;100.00
55916;BME280;41826;53.246;-6.670;2022-08-01T07:32:56;100858.22;;;19.24;100.00
55916;BME280;41826;53.246;-6.670;2022-08-01T07:35:21;100849.25;;;19.32;100.00
55916;BME280;41826;53.246;-6.670;2022-08-01T07:37:46;100848.50;;;19.52;100.00
55916;BME280;41826;53.246;-6.670;2022-08-01T07:40:12;100858.38;;;18.88;100.00
55916;BME280;41826;53.246;-6.670;2022-08-01T07:42:38;100858.34;;;19.16;100.00
55916;BME280;41826;53.246;-6.670;2022-08-01T07:45:04;100846.75;;;19.72;100.00
55916;BME280;41826;53.246;-6.670;2022-08-01T07:47:29;100842.69;;;19.76;100.00
55916;BME280;41826;53.246;-6.670;2022-08-01T07:50:02;100840.25;;;19.33;100.00
55916;BME280;41826;53.246;-6.670;2022-08-01T07:52:28;100838.03;;;19.43;100.00
55916;BME280;41826;53.246;-6.670;2022-08-01T07:54:55;100839.38;;;19.19;100.00
55916;BME280;41826;53.246;-6.670;2022-08-01T07:57:22;100841.13;;;19.54;100.00
55916;BME280;41826;53.246;-6.670;2022-08-01T07:59:47;100839.56;;;19.66;100.00
55916;BME280;41826;53.246;-6.670;2022-08-01T08:02:13;100832.44;;;19.73;100.00
55916;BME280;41826;53.246;-6.670;2022-08-01T08:04:38;100816.41;;;19.66;100.00
55916;BME280;41826;53.246;-6.670;2022-08-01T08:07:04;100811.44;;;19.57;100.00
55916;BME280;41826;53.246;-6.670;2022-08-01T08:09:29;100801.44;;;19.65;100.00
55916;BME280;41826;53.246;-6.670;2022-08-01T08:11:54;100795.84;;;20.28;100.00
55916;BME280;41826;53.246;-6.670;2022-08-01T08:14:20;100786.59;;;20.38;100.00
55916;BME280;41826;53.246;-6.670;2022-08-01T08:16:48;100789.88;;;20.33;100.00
55916;BME280;41826;53.246;-6.670;2022-08-01T08:19:13;100788.63;;;20.35;100.00
55916;BME280;41826;53.246;-6.670;2022-08-01T08:21:39;100779.81;;;20.35;100.00
55916;BME280;41826;53.246;-6.670;2022-08-01T08:24:05;100790.06;;;20.85;100.00
55916;BME280;41826;53.246;-6.670;2022-08-01T08:26:51;100781.06;;;20.59;100.00
55916;BME280;41826;53.246;-6.670;2022-08-01T08:29:18;100775.31;;;20.62;100.00
55916;BME280;41826;53.246;-6.670;2022-08-01T08:31:44;100776.53;;;20.80;100.00
55916;BME280;41826;53.246;-6.670;2022-08-01T08:34:10;100770.41;;;21.24;100.00
55916;BME280;41826;53.246;-6.670;2022-08-01T08:36:35;100769.72;;;20.97;100.00
55916;BME280;41826;53.246;-6.670;2022-08-01T08:39:01;100768.41;;;21.06;100.00
55916;BME280;41826;53.246;-6.670;2022-08-01T08:41:27;100752.47;;;20.93;100.00
55916;BME280;41826;53.246;-6.670;2022-08-01T08:43:53;100759.03;;;20.97;100.00
55916;BME280;41826;53.246;-6.670;2022-08-01T08:46:20;100759.84;;;20.91;100.00
55916;BME280;41826;53.246;-6.670;2022-08-01T08:48:46;100766.31;;;21.21;100.00
55916;BME280;41826;53.246;-6.670;2022-08-01T08:51:12;100762.72;;;20.96;100.00
55916;BME280;41826;53.246;-6.670;2022-08-01T08:53:41;100782.75;;;21.18;100.00
55916;BME280;41826;53.246;-6.670;2022-08-01T08:56:10;100774.75;;;21.18;100.00
55916;BME280;41826;53.246;-6.670;2022-08-01T08:58:37;100773.38;;;20.96;100.00
55916;BME280;41826;53.246;-6.670;2022-08-01T09:01:06;100778.38;;;20.79;100.00
55916;BME280;41826;53.246;-6.670;2022-08-01T09:03:34;100781.69;;;20.34;100.00
55916;BME280;41826;53.246;-6.670;2022-08-01T09:05:59;100775.84;;;21.04;100.00
55916;BME280;41826;53.246;-6.670;2022-08-01T09:08:25;100777.03;;;21.08;100.00
55916;BME280;41826;53.246;-6.670;2022-08-01T09:10:50;100767.16;;;21.15;100.00
55916;BME280;41826;53.246;-6.670;2022-08-01T09:13:16;100757.75;;;21.06;100.00
55916;BME280;41826;53.246;-6.670;2022-08-01T09:15:50;100766.19;;;21.03;100.00
55916;BME280;41826;53.246;-6.670;2022-08-01T09:18:38;100765.66;;;20.48;100.00
55916;BME280;41826;53.246;-6.670;2022-08-01T09:23:41;100757.47;;;20.63;100.00
55916;BME280;41826;53.246;-6.670;2022-08-01T09:26:12;100748.78;;;20.87;100.00
55916;BME280;41826;53.246;-6.670;2022-08-01T09:28:39;100741.34;;;21.03;100.00
55916;BME280;41826;53.246;-6.670;2022-08-01T09:31:17;100746.75;;;20.83;100.00
55916;BME280;41826;53.246;-6.670;2022-08-01T09:34:01;100739.41;;;20.71;100.00
55916;BME280;41826;53.246;-6.670;2022-08-01T09:36:49;100730.44;;;21.56;100.00
55916;BME280;41826;53.246;-6.670;2022-08-01T09:39:20;100735.34;;;21.14;100.00
55916;BME280;41826;53.246;-6.670;2022-08-01T09:41:47;100724.19;;;21.24;100.00
55916;BME280;41826;53.246;-6.670;2022-08-01T09:44:14;100719.13;;;21.15;100.00
55916;BME280;41826;53.246;-6.670;2022-08-01T09:47:09;100710.66;;;21.25;100.00
55916;BME280;41826;53.246;-6.670;2022-08-01T09:49:36;100716.88;;;21.57;100.00
55916;BME280;41826;53.246;-6.670;2022-08-01T09:52:14;100711.88;;;21.68;100.00
55916;BME280;41826;53.246;-6.670;2022-08-01T09:54:42;100707.72;;;21.72;100.00
55916;BME280;41826;53.246;-6.670;2022-08-01T09:57:15;100706.25;;;22.01;100.00
55916;BME280;41826;53.246;-6.670;2022-08-01T09:59:46;100701.94;;;22.25;100.00
55916;BME280;41826;53.246;-6.670;2022-08-01T10:02:14;100703.34;;;21.52;100.00
55916;BME280;41826;53.246;-6.670;2022-08-01T10:04:51;100710.53;;;21.77;100.00
55916;BME280;41826;53.246;-6.670;2022-08-01T10:07:17;100703.56;;;21.44;100.00
55916;BME280;41826;53.246;-6.670;2022-08-01T10:09:44;100699.75;;;21.27;100.00
55916;BME280;41826;53.246;-6.670;2022-08-01T10:12:12;100701.03;;;21.17;100.00
55916;BME280;41826;53.246;-6.670;2022-08-01T10:14:38;100699.34;;;21.61;100.00
55916;BME280;41826;53.246;-6.670;2022-08-01T10:17:07;100692.50;;;21.72;100.00
55916;BME280;41826;53.246;-6.670;2022-08-01T10:19:34;100688.66;;;21.61;100.00
55916;BME280;41826;53.246;-6.670;2022-08-01T10:22:00;100687.81;;;21.68;100.00
55916;BME280;41826;53.246;-6.670;2022-08-01T10:24:29;100682.69;;;21.66;100.00
55916;BME280;41826;53.246;-6.670;2022-08-01T10:27:02;100682.81;;;21.46;100.00
55916;BME280;41826;53.246;-6.670;2022-08-01T10:29:36;100685.81;;;21.25;100.00
55916;BME280;41826;53.246;-6.670;2022-08-01T10:32:04;100678.81;;;21.24;100.00
55916;BME280;41826;53.246;-6.670;2022-08-01T10:34:30;100669.09;;;21.36;100.00
55916;BME280;41826;53.246;-6.670;2022-08-01T10:36:57;100663.78;;;21.29;100.00
55916;BME280;41826;53.246;-6.670;2022-08-01T10:39:23;100662.50;;;21.45;100.00
55916;BME280;41826;53.246;-6.670;2022-08-01T10:41:48;100665.66;;;21.60;100.00
55916;BME280;41826;53.246;-6.670;2022-08-01T10:44:14;100672.47;;;21.56;100.00
55916;BME280;41826;53.246;-6.670;2022-08-01T10:46:46;100669.94;;;21.68;100.00
55916;BME280;41826;53.246;-6.670;2022-08-01T10:49:15;100670.53;;;21.32;100.00
55916;BME280;41826;53.246;-6.670;2022-08-01T10:51:42;100674.09;;;21.26;100.00
55916;BME280;41826;53.246;-6.670;2022-08-01T10:54:12;100671.41;;;21.26;100.00
55916;BME280;41826;53.246;-6.670;2022-08-01T10:56:49;100668.19;;;21.17;100.00
55916;BME280;41826;53.246;-6.670;2022-08-01T10:59:21;100670.84;;;21.55;100.00
55916;BME280;41826;53.246;-6.670;2022-08-01T11:01:58;100671.22;;;21.27;100.00
55916;BME280;41826;53.246;-6.670;2022-08-01T11:04:51;100672.94;;;21.47;100.00
55916;BME280;41826;53.246;-6.670;2022-08-01T11:07:24;100663.56;;;20.99;100.00
55916;BME280;41826;53.246;-6.670;2022-08-01T11:10:09;100663.22;;;20.75;100.00
55916;BME280;41826;53.246;-6.670;2022-08-01T11:12:39;100652.09;;;20.92;100.00
55916;BME280;41826;53.246;-6.670;2022-08-01T11:17:42;100654.22;;;20.76;100.00
55916;BME280;41826;53.246;-6.670;2022-08-01T11:30:46;100653.00;;;20.66;100.00
55916;BME280;41826;53.246;-6.670;2022-08-01T11:33:13;100657.78;;;20.30;100.00
55916;BME280;41826;53.246;-6.670;2022-08-01T11:38:46;100638.06;;;20.51;100.00
55916;BME280;41826;53.246;-6.670;2022-08-01T11:41:16;100635.66;;;20.30;100.00
55916;BME280;41826;53.246;-6.670;2022-08-01T11:47:06;100636.63;;;20.49;100.00
55916;BME280;41826;53.246;-6.670;2022-08-01T11:52:09;100620.53;;;20.75;100.00
55916;BME280;41826;53.246;-6.670;2022-08-01T11:54:37;100610.84;;;20.23;100.00
55916;BME280;41826;53.246;-6.670;2022-08-01T11:57:05;100618.81;;;20.56;100.00
55916;BME280;41826;53.246;-6.670;2022-08-01T12:02:04;100609.78;;;20.44;100.00
55916;BME280;41826;53.246;-6.670;2022-08-01T12:04:50;100618.88;;;20.16;100.00
55916;BME280;41826;53.246;-6.670;2022-08-01T12:07:17;100621.78;;;20.01;100.00
55916;BME280;41826;53.246;-6.670;2022-08-01T12:09:43;100615.22;;;20.04;100.00
55916;BME280;41826;53.246;-6.670;2022-08-01T12:12:09;100619.22;;;20.33;100.00
55916;BME280;41826;53.246;-6.670;2022-08-01T12:14:35;100613.66;;;20.54;100.00
55916;BME280;41826;53.246;-6.670;2022-08-01T12:17:00;100602.84;;;20.23;100.00
55916;BME280;41826;53.246;-6.670;2022-08-01T12:19:26;100609.97;;;20.42;100.00
55916;BME280;41826;53.246;-6.670;2022-08-01T12:22:10;100611.22;;;20.46;100.00
55916;BME280;41826;53.246;-6.670;2022-08-01T12:24:38;100614.00;;;20.71;100.00
55916;BME280;41826;53.246;-6.670;2022-08-01T12:27:05;100602.28;;;20.79;100.00
55916;BME280;41826;53.246;-6.670;2022-08-01T12:29:41;100618.34;;;20.52;100.00
55916;BME280;41826;53.246;-6.670;2022-08-01T12:32:42;100613.84;;;20.53;100.00
55916;BME280;41826;53.246;-6.670;2022-08-01T12:35:16;100603.16;;;20.66;100.00
55916;BME280;41826;53.246;-6.670;2022-08-01T12:37:42;100607.69;;;20.46;100.00
55916;BME280;41826;53.246;-6.670;2022-08-01T12:40:22;100608.75;;;20.45;100.00
55916;BME280;41826;53.246;-6.670;2022-08-01T12:42:50;100607.94;;;20.38;100.00
55916;BME280;41826;53.246;-6.670;2022-08-01T12:45:18;100612.72;;;20.22;100.00
55916;BME280;41826;53.246;-6.670;2022-08-01T12:47:46;100601.63;;;20.25;100.00
55916;BME280;41826;53.246;-6.670;2022-08-01T12:50:19;100599.22;;;20.10;100.00
55916;BME280;41826;53.246;-6.670;2022-08-01T12:52:46;100602.28;;;20.07;100.00
55916;BME280;41826;53.246;-6.670;2022-08-01T12:55:23;100603.97;;;19.88;100.00
55916;BME280;41826;53.246;-6.670;2022-08-01T12:58:06;100596.38;;;19.92;100.00
55916;BME280;41826;53.246;-6.670;2022-08-01T13:00:33;100607.25;;;19.90;100.00
55916;BME280;41826;53.246;-6.670;2022-08-01T13:05:27;100603.56;;;19.65;100.00
55916;BME280;41826;53.246;-6.670;2022-08-01T13:07:53;100606.19;;;19.38;100.00
55916;BME280;41826;53.246;-6.670;2022-08-01T13:10:27;100600.88;;;19.58;100.00
55916;BME280;41826;53.246;-6.670;2022-08-01T13:12:54;100594.50;;;19.59;100.00
55916;BME280;41826;53.246;-6.670;2022-08-01T13:15:29;100604.78;;;19.56;100.00
55916;BME280;41826;53.246;-6.670;2022-08-01T13:17:58;100600.47;;;19.55;100.00